createdAt,value
2018-04-24T00:00:59.740Z,0.00
2018-04-24T00:01:59.726Z,0.00
2018-04-24T00:02:59.725Z,0.00
2018-04-24T00:03:59.699Z,0.00
2018-04-24T00:04:59.682Z,0.00
2018-04-24T00:05:59.674Z,0.00
2018-04-24T00:06:59.654Z,0.00
2018-04-24T00:07:59.638Z,0.00
2018-04-24T00:08:59.628Z,0.00
2018-04-24T00:09:59.611Z,0.00
2018-04-24T00:10:59.596Z,0.00
2018-04-24T00:11:59.729Z,0.00
2018-04-24T00:12:59.566Z,0.00
2018-04-24T00:13:59.553Z,0.00
2018-04-24T00:14:59.536Z,0.00
2018-04-24T00:15:59.521Z,0.00
2018-04-24T00:16:59.507Z,0.00
2018-04-24T00:17:59.495Z,0.00
2018-04-24T00:18:59.480Z,0.00
2018-04-24T00:19:59.462Z,0.00
2018-04-24T00:20:59.450Z,0.00
2018-04-24T00:21:59.433Z,0.00
2018-04-24T00:22:59.418Z,0.00
2018-04-24T00:23:59.405Z,0.00
2018-04-24T00:24:59.389Z,0.00
2018-04-24T00:25:59.435Z,0.00
2018-04-24T00:26:59.359Z,0.00
2018-04-24T00:27:59.349Z,0.00
2018-04-24T00:28:59.330Z,0.00
2018-04-24T00:29:59.316Z,0.00
2018-04-24T00:30:59.305Z,0.00
2018-04-24T00:31:59.284Z,0.00
2018-04-24T00:32:59.270Z,0.00
2018-04-24T00:33:59.256Z,0.00
2018-04-24T00:34:59.243Z,0.00
2018-04-24T00:35:59.225Z,0.00
2018-04-24T00:36:59.209Z,0.00
2018-04-24T00:37:59.199Z,0.00
2018-04-24T00:38:59.178Z,0.00
2018-04-24T00:39:59.164Z,0.00
2018-04-24T00:40:59.151Z,0.00
2018-04-24T00:41:59.138Z,0.00
2018-04-24T00:42:59.121Z,0.00
2018-04-24T00:43:59.109Z,0.00
2018-04-24T00:44:59.090Z,0.00
2018-04-24T00:45:59.075Z,0.00
2018-04-24T00:46:59.061Z,0.00
2018-04-24T00:47:59.044Z,0.00
2018-04-24T00:48:59.031Z,0.00
2018-04-24T00:49:59.027Z,0.00
2018-04-24T00:50:59.001Z,0.00
2018-04-24T00:51:58.985Z,0.00
2018-04-24T00:52:58.969Z,0.00
2018-04-24T00:53:58.953Z,0.00
2018-04-24T00:54:58.938Z,0.00
2018-04-24T00:55:58.922Z,0.00
2018-04-24T00:56:58.909Z,0.00
2018-04-24T00:57:58.891Z,0.00
2018-04-24T00:58:58.881Z,0.00
2018-04-24T00:59:58.862Z,0.00
2018-04-24T01:00:58.917Z,0.00
2018-04-24T01:01:58.835Z,0.00
2018-04-24T01:02:58.821Z,0.00
2018-04-24T01:03:58.799Z,0.00
2018-04-24T01:04:58.788Z,0.00
2018-04-24T01:05:58.770Z,0.00
2018-04-24T01:06:58.756Z,0.00
2018-04-24T01:07:58.738Z,0.00
2018-04-24T01:08:58.726Z,0.00
2018-04-24T01:09:58.709Z,0.00
2018-04-24T01:10:58.699Z,0.00
2018-04-24T01:11:58.678Z,0.00
2018-04-24T01:12:58.663Z,0.00
2018-04-24T01:13:58.647Z,0.00
2018-04-24T01:14:58.632Z,0.00
2018-04-24T01:15:58.618Z,0.00
2018-04-24T01:16:58.601Z,0.00
2018-04-24T01:17:58.590Z,0.00
2018-04-24T01:18:58.570Z,0.00
2018-04-24T01:19:58.555Z,0.00
2018-04-24T01:20:58.541Z,0.00
2018-04-24T01:21:58.524Z,0.00
2018-04-24T01:22:58.511Z,0.00
2018-04-24T01:23:58.497Z,0.00
2018-04-24T01:24:58.479Z,0.00
2018-04-24T01:25:58.463Z,0.00
2018-04-24T01:26:58.450Z,0.00
2018-04-24T01:27:58.436Z,0.00
2018-04-24T01:28:58.416Z,0.00
2018-04-24T01:29:58.409Z,0.00
2018-04-24T01:30:58.386Z,0.00
2018-04-24T01:31:58.371Z,0.00
2018-04-24T01:32:58.409Z,0.00
2018-04-24T01:33:58.338Z,0.00
2018-04-24T01:34:58.325Z,0.00
2018-04-24T01:35:58.307Z,0.00
2018-04-24T01:36:58.293Z,0.00
2018-04-24T01:37:58.276Z,0.00
2018-04-24T01:38:58.264Z,0.00
2018-04-24T01:39:58.245Z,0.00
2018-04-24T01:40:58.229Z,0.00
2018-04-24T01:41:58.214Z,0.00
2018-04-24T01:42:58.198Z,0.00
2018-04-24T01:43:58.192Z,0.00
2018-04-24T01:44:58.166Z,0.00
2018-04-24T01:45:58.156Z,0.00
2018-04-24T01:46:58.135Z,0.00
2018-04-24T01:47:58.120Z,0.00
2018-04-24T01:48:58.103Z,0.00
2018-04-24T01:49:58.090Z,0.00
2018-04-24T01:50:58.074Z,0.00
2018-04-24T01:51:58.059Z,0.00
2018-04-24T01:52:58.041Z,0.00
2018-04-24T01:53:58.023Z,0.00
2018-04-24T01:54:58.009Z,0.00
2018-04-24T01:55:57.993Z,0.00
2018-04-24T01:56:57.979Z,0.00
2018-04-24T01:57:57.961Z,0.00
2018-04-24T01:58:57.945Z,0.00
2018-04-24T01:59:57.930Z,0.00
2018-04-24T02:00:57.913Z,0.00
2018-04-24T02:01:57.899Z,0.00
2018-04-24T02:02:57.883Z,0.00
2018-04-24T02:03:57.869Z,0.00
2018-04-24T02:04:57.851Z,0.00
2018-04-24T02:05:57.835Z,0.00
2018-04-24T02:06:57.819Z,0.00
2018-04-24T02:07:57.803Z,0.00
2018-04-24T02:08:57.787Z,0.00
2018-04-24T02:09:57.774Z,0.00
2018-04-24T02:10:57.758Z,0.00
2018-04-24T02:11:57.737Z,0.00
2018-04-24T02:12:57.730Z,0.00
2018-04-24T02:13:57.708Z,0.00
2018-04-24T02:14:57.690Z,0.00
2018-04-24T02:15:57.674Z,0.00
2018-04-24T02:16:57.659Z,0.00
2018-04-24T02:17:57.649Z,0.00
2018-04-24T02:18:57.628Z,0.00
2018-04-24T02:19:57.609Z,0.00
2018-04-24T02:20:57.597Z,0.00
2018-04-24T02:21:57.578Z,0.00
2018-04-24T02:22:57.642Z,0.00
2018-04-24T02:23:57.551Z,0.00
2018-04-24T02:24:57.570Z,0.00
2018-04-24T02:25:57.520Z,0.00
2018-04-24T02:26:57.499Z,0.00
2018-04-24T02:27:57.482Z,0.00
2018-04-24T02:28:57.466Z,0.00
2018-04-24T02:29:57.452Z,0.00
2018-04-24T02:30:57.441Z,0.00
2018-04-24T02:31:57.416Z,0.00
2018-04-24T02:32:57.403Z,0.00
2018-04-24T02:33:57.397Z,0.00
2018-04-24T02:34:57.368Z,0.00
2018-04-24T02:35:57.357Z,0.00
2018-04-24T02:36:57.335Z,0.00
2018-04-24T02:37:57.319Z,0.00
2018-04-24T02:38:57.303Z,0.00
2018-04-24T02:39:57.287Z,0.00
2018-04-24T02:40:57.273Z,0.00
2018-04-24T02:41:57.256Z,0.00
2018-04-24T02:42:57.240Z,0.00
2018-04-24T02:43:57.226Z,0.00
2018-04-24T02:44:57.206Z,0.00
2018-04-24T02:45:57.190Z,0.00
2018-04-24T02:46:57.174Z,0.00
2018-04-24T02:47:57.156Z,0.00
2018-04-24T02:48:57.140Z,0.00
2018-04-24T02:49:57.124Z,0.00
2018-04-24T02:50:57.111Z,0.00
2018-04-24T02:51:57.091Z,0.00
2018-04-24T02:52:57.073Z,0.00
2018-04-24T02:53:57.065Z,0.00
2018-04-24T02:54:57.042Z,0.00
2018-04-24T02:55:57.024Z,0.00
2018-04-24T02:56:57.015Z,0.00
2018-04-24T02:57:56.993Z,0.00
2018-04-24T02:58:56.979Z,0.00
2018-04-24T02:59:56.961Z,0.00
2018-04-24T03:00:56.942Z,0.00
2018-04-24T03:01:56.932Z,0.00
2018-04-24T03:02:56.914Z,0.00
2018-04-24T03:03:56.895Z,0.00
2018-04-24T03:04:56.877Z,0.00
2018-04-24T03:05:56.875Z,0.00
2018-04-24T03:06:56.855Z,0.00
2018-04-24T03:07:56.832Z,0.00
2018-04-24T03:08:56.814Z,0.00
2018-04-24T03:09:56.804Z,0.00
2018-04-24T03:10:56.788Z,0.00
2018-04-24T03:11:56.903Z,0.00
2018-04-24T03:12:56.747Z,0.00
2018-04-24T03:13:56.727Z,0.00
2018-04-24T03:14:56.712Z,0.00
2018-04-24T03:15:56.700Z,0.00
2018-04-24T03:16:56.683Z,4.00
2018-04-24T03:17:56.663Z,4.00
2018-04-24T03:18:56.648Z,0.00
2018-04-24T03:19:56.633Z,0.00
2018-04-24T03:20:56.614Z,4.00
2018-04-24T03:21:56.600Z,4.00
2018-04-24T03:22:56.581Z,4.00
2018-04-24T03:23:56.562Z,8.00
2018-04-24T03:24:56.545Z,4.00
2018-04-24T03:25:56.531Z,8.00
2018-04-24T03:26:56.513Z,8.00
2018-04-24T03:27:56.496Z,12.00
2018-04-24T03:28:56.481Z,12.00
2018-04-24T03:29:56.469Z,16.00
2018-04-24T03:30:56.454Z,20.00
2018-04-24T03:31:56.434Z,20.00
2018-04-24T03:32:56.414Z,20.00
2018-04-24T03:33:56.396Z,28.00
2018-04-24T03:34:56.381Z,28.00
2018-04-24T03:35:56.368Z,36.00
2018-04-24T03:36:56.345Z,40.00
2018-04-24T03:37:56.338Z,48.00
2018-04-24T03:38:56.319Z,48.00
2018-04-24T03:39:56.297Z,56.00
2018-04-24T03:40:56.279Z,64.00
2018-04-24T03:41:56.263Z,72.00
2018-04-24T03:42:56.251Z,80.00
2018-04-24T03:43:56.229Z,88.00
2018-04-24T03:44:56.212Z,100.00
2018-04-24T03:45:56.196Z,112.00
2018-04-24T03:46:56.178Z,116.00
2018-04-24T03:47:56.160Z,132.00
2018-04-24T03:48:56.143Z,144.00
2018-04-24T03:49:56.128Z,160.00
2018-04-24T03:50:56.111Z,172.00
2018-04-24T03:51:56.095Z,188.00
2018-04-24T03:52:56.078Z,200.00
2018-04-24T03:53:56.065Z,220.00
2018-04-24T03:54:56.046Z,240.00
2018-04-24T03:55:56.030Z,272.00
2018-04-24T03:56:56.009Z,296.00
2018-04-24T03:57:55.992Z,320.00
2018-04-24T03:58:55.978Z,348.00
2018-04-24T03:59:55.972Z,380.00
2018-04-24T04:00:55.943Z,416.00
2018-04-24T04:01:55.923Z,452.00
2018-04-24T04:02:55.906Z,484.00
2018-04-24T04:03:55.892Z,480.00
2018-04-24T04:04:55.874Z,536.00
2018-04-24T04:05:55.858Z,568.00
2018-04-24T04:06:55.839Z,596.00
2018-04-24T04:07:55.831Z,628.00
2018-04-24T04:08:55.808Z,664.00
2018-04-24T04:09:55.789Z,700.00
2018-04-24T04:10:55.771Z,736.00
2018-04-24T04:11:55.759Z,776.00
2018-04-24T04:12:55.740Z,816.00
2018-04-24T04:13:55.722Z,848.00
2018-04-24T04:14:55.703Z,876.00
2018-04-24T04:15:55.774Z,912.00
2018-04-24T04:16:55.671Z,944.00
2018-04-24T04:17:55.653Z,980.00
2018-04-24T04:18:55.639Z,1020.00
2018-04-24T04:19:55.618Z,1060.00
2018-04-24T04:20:55.600Z,1088.00
2018-04-24T04:21:55.582Z,1112.00
2018-04-24T04:22:55.568Z,1152.00
2018-04-24T04:24:10.117Z,1216.00
2018-04-24T04:25:10.077Z,1256.00
2018-04-24T04:26:10.059Z,1308.00
2018-04-24T04:27:10.045Z,1348.00
2018-04-24T04:28:10.019Z,1364.00
2018-04-24T04:29:10.008Z,1360.00
2018-04-24T04:30:09.986Z,1364.00
2018-04-24T04:31:09.972Z,1372.00
2018-04-24T04:32:09.950Z,1388.00
2018-04-24T04:33:09.934Z,1404.00
2018-04-24T04:34:09.926Z,1432.00
2018-04-24T04:35:09.902Z,1452.00
2018-04-24T04:36:09.887Z,1460.00
2018-04-24T04:37:09.867Z,1476.00
2018-04-24T04:38:09.854Z,1508.00
2018-04-24T04:39:09.833Z,1524.00
2018-04-24T04:40:09.818Z,1544.00
2018-04-24T04:41:09.849Z,1588.00
2018-04-24T04:42:09.782Z,1596.00
2018-04-24T04:43:09.767Z,1576.00
2018-04-24T04:44:09.748Z,1632.00
2018-04-24T04:45:09.733Z,1736.00
2018-04-24T04:46:09.715Z,1844.00
2018-04-24T04:47:09.702Z,1964.00
2018-04-24T04:48:09.682Z,2080.00
2018-04-24T04:49:09.667Z,2236.00
2018-04-24T04:50:09.651Z,2428.00
2018-04-24T04:51:09.630Z,2632.00
2018-04-24T04:52:09.616Z,2824.00
2018-04-24T04:53:09.645Z,2992.00
2018-04-24T04:54:09.585Z,2980.00
2018-04-24T04:55:09.566Z,2872.00
2018-04-24T04:56:09.598Z,2952.00
2018-04-24T04:57:09.529Z,3064.00
2018-04-24T04:58:09.515Z,3200.00
2018-04-24T04:59:09.497Z,3268.00
2018-04-24T05:00:09.479Z,3308.00
2018-04-24T05:01:09.462Z,3316.00
2018-04-24T05:02:09.525Z,3320.00
2018-04-24T05:03:09.433Z,3328.00
2018-04-24T05:04:09.414Z,3324.00
2018-04-24T05:05:09.446Z,3304.00
2018-04-24T05:06:09.380Z,3312.00
2018-04-24T05:07:09.365Z,3348.00
2018-04-24T05:08:09.357Z,3404.00
2018-04-24T05:09:09.335Z,3480.00
2018-04-24T05:10:09.319Z,3568.00
2018-04-24T05:11:09.298Z,3660.00
2018-04-24T05:12:09.341Z,3732.00
2018-04-24T05:13:09.264Z,3780.00
2018-04-24T05:14:09.248Z,3796.00
2018-04-24T05:15:09.236Z,3792.00
2018-04-24T05:16:09.220Z,3772.00
2018-04-24T05:17:09.202Z,3748.00
2018-04-24T05:18:09.184Z,3712.00
2018-04-24T05:19:09.173Z,3660.00
2018-04-24T05:20:09.241Z,3568.00
2018-04-24T05:21:09.134Z,3472.00
2018-04-24T05:22:09.119Z,3372.00
2018-04-24T05:23:09.103Z,3308.00
2018-04-24T05:24:09.092Z,3304.00
2018-04-24T05:25:09.075Z,3348.00
2018-04-24T05:26:09.053Z,3404.00
2018-04-24T05:27:09.040Z,3460.00
2018-04-24T05:28:09.022Z,3488.00
2018-04-24T05:29:09.016Z,3488.00
2018-04-24T05:30:08.991Z,3460.00
2018-04-24T05:31:08.980Z,3400.00
2018-04-24T05:32:08.960Z,3308.00
2018-04-24T05:33:08.943Z,3220.00
2018-04-24T05:34:08.925Z,3140.00
2018-04-24T05:35:08.912Z,3088.00
2018-04-24T05:36:08.902Z,3092.00
2018-04-24T05:37:08.888Z,3180.00
2018-04-24T05:38:08.865Z,3332.00
2018-04-24T05:39:08.849Z,3516.00
2018-04-24T05:40:08.830Z,3716.00
2018-04-24T05:41:08.818Z,3936.00
2018-04-24T05:42:08.800Z,4144.00
2018-04-24T05:43:08.785Z,4328.00
2018-04-24T05:44:08.769Z,4448.00
2018-04-24T05:45:08.751Z,4372.00
2018-04-24T05:46:08.737Z,4168.00
2018-04-24T05:47:08.721Z,4152.00
2018-04-24T05:48:08.705Z,4392.00
2018-04-24T05:49:08.689Z,4756.00
2018-04-24T05:50:08.676Z,5148.00
2018-04-24T05:51:08.662Z,5504.00
2018-04-24T05:52:08.644Z,5780.00
2018-04-24T05:53:08.686Z,5896.00
2018-04-24T05:54:08.621Z,5860.00
2018-04-24T05:55:08.598Z,5804.00
2018-04-24T05:56:08.584Z,5632.00
2018-04-24T05:57:08.566Z,5408.00
2018-04-24T05:58:08.553Z,5108.00
2018-04-24T05:59:08.534Z,4728.00
2018-04-24T06:00:08.518Z,4652.00
2018-04-24T06:01:08.503Z,4880.00
2018-04-24T06:02:08.492Z,5132.00
2018-04-24T06:03:08.491Z,5364.00
2018-04-24T06:04:08.456Z,5560.00
2018-04-24T06:05:08.457Z,5784.00
2018-04-24T06:06:08.427Z,5808.00
2018-04-24T06:07:08.413Z,5528.00
2018-04-24T06:08:08.396Z,5244.00
2018-04-24T06:09:08.386Z,5068.00
2018-04-24T06:10:08.368Z,5012.00
2018-04-24T06:11:08.357Z,5316.00
2018-04-24T06:12:08.342Z,5776.00
2018-04-24T06:13:08.322Z,6192.00
2018-04-24T06:14:08.309Z,6476.00
2018-04-24T06:15:08.366Z,6620.00
2018-04-24T06:16:08.277Z,6704.00
2018-04-24T06:17:08.263Z,6796.00
2018-04-24T06:18:08.248Z,6888.00
2018-04-24T06:19:08.235Z,6920.00
2018-04-24T06:20:08.222Z,6872.00
2018-04-24T06:21:08.205Z,6776.00
2018-04-24T06:22:08.190Z,6668.00
2018-04-24T06:23:08.176Z,6640.00
2018-04-24T06:24:08.170Z,6788.00
2018-04-24T06:25:08.147Z,7000.00
2018-04-24T06:26:08.131Z,7136.00
2018-04-24T06:27:08.117Z,7184.00
2018-04-24T06:28:08.101Z,7116.00
2018-04-24T06:29:08.094Z,6996.00
2018-04-24T06:30:08.082Z,6924.00
2018-04-24T06:31:08.058Z,6880.00
2018-04-24T06:32:08.044Z,6868.00
2018-04-24T06:33:08.030Z,6872.00
2018-04-24T06:34:08.017Z,7036.00
2018-04-24T06:35:08.003Z,7016.00
2018-04-24T06:36:07.987Z,6896.00
2018-04-24T06:37:07.980Z,7096.00
2018-04-24T06:38:07.959Z,7524.00
2018-04-24T06:39:07.944Z,8044.00
2018-04-24T06:40:07.933Z,8352.00
2018-04-24T06:41:07.925Z,8996.00
2018-04-24T06:42:07.902Z,9724.00
2018-04-24T06:43:07.887Z,10144.00
2018-04-24T06:44:07.875Z,10424.00
2018-04-24T06:45:07.858Z,10660.00
2018-04-24T06:46:07.844Z,10864.00
2018-04-24T06:47:07.840Z,11480.00
2018-04-24T06:48:07.817Z,11360.00
2018-04-24T06:49:07.804Z,10244.00
2018-04-24T06:50:07.789Z,9908.00
2018-04-24T06:51:07.775Z,9348.00
2018-04-24T06:52:07.761Z,8772.00
2018-04-24T06:53:07.748Z,8644.00
2018-04-24T06:54:07.735Z,8564.00
2018-04-24T06:55:07.738Z,8412.00
2018-04-24T06:56:07.706Z,8804.00
2018-04-24T06:57:07.692Z,9436.00
2018-04-24T06:58:07.682Z,11776.00
2018-04-24T06:59:07.669Z,12840.00
2018-04-24T07:00:07.653Z,10656.00
2018-04-24T07:01:07.640Z,15620.00
2018-04-24T07:02:07.625Z,16736.00
2018-04-24T07:03:07.614Z,15136.00
2018-04-24T07:04:07.597Z,9944.00
2018-04-24T07:05:07.585Z,14756.00
2018-04-24T07:06:07.571Z,22432.00
2018-04-24T07:07:07.560Z,24288.00
2018-04-24T07:08:07.545Z,26112.00
2018-04-24T07:09:07.533Z,19936.00
2018-04-24T07:10:07.521Z,29600.00
2018-04-24T07:11:07.505Z,31168.00
2018-04-24T07:12:07.494Z,35744.00
2018-04-24T07:13:07.482Z,19328.00
2018-04-24T07:14:07.471Z,35776.00
2018-04-24T07:15:07.458Z,32128.00
2018-04-24T07:16:07.454Z,34400.00
2018-04-24T07:17:07.432Z,35936.00
2018-04-24T07:18:07.420Z,36448.00
2018-04-24T07:19:07.413Z,39168.00
2018-04-24T07:20:07.401Z,42240.00
2018-04-24T07:21:07.387Z,42816.00
2018-04-24T07:22:07.432Z,42272.00
2018-04-24T07:23:07.366Z,37440.00
2018-04-24T07:24:07.357Z,29344.00
2018-04-24T07:25:07.347Z,24576.00
2018-04-24T07:26:07.393Z,25728.00
2018-04-24T07:27:07.340Z,29984.00
2018-04-24T07:28:07.320Z,28640.00
2018-04-24T07:29:07.312Z,22496.00
2018-04-24T07:30:07.301Z,28512.00
2018-04-24T07:31:07.291Z,29728.00
2018-04-24T07:32:07.282Z,21984.00
2018-04-24T07:33:07.278Z,20640.00
2018-04-24T07:34:07.268Z,24224.00
2018-04-24T07:35:07.260Z,32000.00
2018-04-24T07:36:07.249Z,33792.00
2018-04-24T07:37:07.244Z,36448.00
2018-04-24T07:38:07.236Z,38112.00
2018-04-24T07:39:07.228Z,39616.00
2018-04-24T07:40:07.220Z,41216.00
2018-04-24T07:41:07.233Z,42912.00
2018-04-24T07:42:07.206Z,45312.00
2018-04-24T07:43:07.202Z,41632.00
2018-04-24T07:44:07.189Z,39040.00
2018-04-24T07:45:07.183Z,40448.00
2018-04-24T07:46:07.177Z,41408.00
2018-04-24T07:47:07.177Z,41536.00
2018-04-24T07:48:07.169Z,45376.00
2018-04-24T07:49:07.156Z,42144.00
2018-04-24T07:50:07.158Z,46816.00
2018-04-24T07:51:07.150Z,48256.00
2018-04-24T07:52:07.143Z,46112.00
2018-04-24T07:53:07.134Z,39008.00
2018-04-24T07:54:07.124Z,37760.00
2018-04-24T07:55:07.121Z,28000.00
2018-04-24T07:56:07.120Z,39328.00
2018-04-24T07:57:07.114Z,43456.00
2018-04-24T07:58:07.106Z,52448.00
2018-04-24T07:59:07.101Z,51040.00
2018-04-24T08:00:07.096Z,52576.00
2018-04-24T08:01:07.093Z,48256.00
2018-04-24T08:02:07.086Z,51200.00
2018-04-24T08:03:07.085Z,52672.00
2018-04-24T08:04:07.092Z,50496.00
2018-04-24T08:05:07.078Z,48288.00
2018-04-24T08:06:07.070Z,48608.00
2018-04-24T08:07:07.065Z,49888.00
2018-04-24T08:08:07.144Z,49792.00
2018-04-24T08:09:07.058Z,49536.00
2018-04-24T08:10:07.054Z,51776.00
2018-04-24T08:11:07.051Z,55168.00
2018-04-24T08:12:07.046Z,58496.00
2018-04-24T08:13:07.043Z,60064.00
2018-04-24T08:14:07.040Z,60096.00
2018-04-24T08:15:07.039Z,54080.00
2018-04-24T08:16:07.035Z,47840.00
2018-04-24T08:17:07.037Z,46432.00
2018-04-24T08:18:07.029Z,49984.00
2018-04-24T08:19:07.027Z,50464.00
2018-04-24T08:20:07.023Z,52192.00
2018-04-24T08:21:07.020Z,49344.00
2018-04-24T08:22:07.019Z,55456.00
2018-04-24T08:23:07.014Z,56576.00
2018-04-24T08:24:07.013Z,51520.00
2018-04-24T08:25:07.010Z,59456.00
2018-04-24T08:26:07.006Z,67744.00
2018-04-24T08:27:07.004Z,70688.00
2018-04-24T08:28:07.000Z,51680.00
2018-04-24T08:29:07.000Z,50592.00
2018-04-24T08:30:07.001Z,49152.00
2018-04-24T08:31:06.993Z,52416.00
2018-04-24T08:32:06.993Z,48128.00
2018-04-24T08:33:06.992Z,52128.00
2018-04-24T08:34:06.988Z,58368.00
2018-04-24T08:35:06.986Z,59776.00
2018-04-24T08:36:06.982Z,64064.00
2018-04-24T08:37:06.979Z,61312.00
2018-04-24T08:38:06.978Z,55904.00
2018-04-24T08:39:06.976Z,45952.00
2018-04-24T08:40:07.076Z,49600.00
2018-04-24T08:41:06.978Z,51360.00
2018-04-24T08:42:06.967Z,53376.00
2018-04-24T08:43:06.967Z,57888.00
2018-04-24T08:44:06.963Z,51456.00
2018-04-24T08:45:06.964Z,47776.00
2018-04-24T08:46:06.960Z,48288.00
2018-04-24T08:47:06.962Z,47776.00
2018-04-24T08:48:06.955Z,48128.00
2018-04-24T08:49:06.956Z,48320.00
2018-04-24T08:50:06.951Z,46976.00
2018-04-24T08:51:06.953Z,49088.00
2018-04-24T08:52:06.946Z,51488.00
2018-04-24T08:53:06.949Z,54496.00
2018-04-24T08:54:06.943Z,52704.00
2018-04-24T08:55:06.940Z,56128.00
2018-04-24T08:56:06.939Z,53568.00
2018-04-24T08:57:06.939Z,52896.00
2018-04-24T08:58:06.934Z,46752.00
2018-04-24T08:59:06.932Z,40800.00
2018-04-24T09:00:06.931Z,31936.00
2018-04-24T09:01:06.933Z,26400.00
2018-04-24T09:02:06.989Z,26496.00
2018-04-24T09:03:06.922Z,23680.00
2018-04-24T09:04:06.918Z,19360.00
2018-04-24T09:05:06.917Z,16960.00
2018-04-24T09:06:06.916Z,15916.00
2018-04-24T09:07:06.911Z,15560.00
2018-04-24T09:08:06.909Z,14872.00
2018-04-24T09:09:06.906Z,14220.00
2018-04-24T09:10:06.903Z,14420.00
2018-04-24T09:11:06.900Z,15516.00
2018-04-24T09:12:06.896Z,16524.00
2018-04-24T09:13:06.891Z,16540.00
2018-04-24T09:14:06.896Z,15472.00
2018-04-24T09:15:06.884Z,15000.00
2018-04-24T09:16:06.878Z,15860.00
2018-04-24T09:17:06.877Z,17792.00
2018-04-24T09:18:06.872Z,20864.00
2018-04-24T09:19:06.866Z,25632.00
2018-04-24T09:20:06.861Z,24864.00
2018-04-24T09:21:06.857Z,23008.00
2018-04-24T09:22:06.855Z,22208.00
2018-04-24T09:23:06.849Z,20544.00
2018-04-24T09:24:06.841Z,20896.00
2018-04-24T09:25:06.835Z,24192.00
2018-04-24T09:26:06.831Z,30656.00
2018-04-24T09:27:06.903Z,24032.00
2018-04-24T09:28:06.821Z,22784.00
2018-04-24T09:29:06.814Z,24032.00
2018-04-24T09:30:06.810Z,19104.00
2018-04-24T09:31:06.810Z,19072.00
2018-04-24T09:32:06.796Z,22592.00
2018-04-24T09:33:06.791Z,27136.00
2018-04-24T09:34:06.786Z,26752.00
2018-04-24T09:35:06.779Z,40416.00
2018-04-24T09:36:06.776Z,38560.00
2018-04-24T09:37:06.768Z,44960.00
2018-04-24T09:38:06.762Z,36576.00
2018-04-24T09:39:06.816Z,41344.00
2018-04-24T09:40:06.749Z,25248.00
2018-04-24T09:41:06.745Z,26944.00
2018-04-24T09:42:06.739Z,21632.00
2018-04-24T09:43:06.734Z,20000.00
2018-04-24T09:44:06.730Z,19872.00
2018-04-24T09:45:06.723Z,19200.00
2018-04-24T09:46:06.749Z,20512.00
2018-04-24T09:47:06.711Z,22176.00
2018-04-24T09:48:06.705Z,24352.00
2018-04-24T09:49:06.699Z,20992.00
2018-04-24T09:50:06.697Z,17920.00
2018-04-24T09:51:06.689Z,16244.00
2018-04-24T09:52:06.681Z,14544.00
2018-04-24T09:53:06.673Z,13372.00
2018-04-24T09:54:06.668Z,11164.00
2018-04-24T09:55:06.666Z,10728.00
2018-04-24T09:56:06.656Z,10020.00
2018-04-24T09:57:06.649Z,9156.00
2018-04-24T09:58:06.644Z,8380.00
2018-04-24T09:59:06.641Z,8384.00
2018-04-24T10:00:06.632Z,9804.00
2018-04-24T10:01:06.632Z,12848.00
2018-04-24T10:02:06.622Z,17824.00
2018-04-24T10:03:06.608Z,19808.00
2018-04-24T10:04:06.602Z,20736.00
2018-04-24T10:05:06.595Z,20320.00
2018-04-24T10:06:06.588Z,20128.00
2018-04-24T10:07:06.583Z,19808.00
2018-04-24T10:08:06.577Z,21568.00
2018-04-24T10:09:06.569Z,25728.00
2018-04-24T10:10:06.558Z,30112.00
2018-04-24T10:11:06.552Z,30528.00
2018-04-24T10:12:06.547Z,26784.00
2018-04-24T10:13:06.593Z,23296.00
2018-04-24T10:14:06.533Z,20256.00
2018-04-24T10:15:06.524Z,22464.00
2018-04-24T10:16:06.517Z,24832.00
2018-04-24T10:17:06.511Z,27360.00
2018-04-24T10:18:06.505Z,23168.00
2018-04-24T10:19:06.495Z,24672.00
2018-04-24T10:20:06.488Z,25696.00
2018-04-24T10:21:06.482Z,26464.00
2018-04-24T10:22:06.475Z,30528.00
2018-04-24T10:23:06.468Z,28032.00
2018-04-24T10:24:06.459Z,40736.00
2018-04-24T10:25:06.453Z,24768.00
2018-04-24T10:26:06.446Z,20288.00
2018-04-24T10:27:06.440Z,16800.00
2018-04-24T10:28:06.434Z,16520.00
2018-04-24T10:29:06.428Z,19680.00
2018-04-24T10:30:06.419Z,26112.00
2018-04-24T10:31:06.412Z,22624.00
2018-04-24T10:32:06.406Z,18176.00
2018-04-24T10:33:06.399Z,15504.00
2018-04-24T10:34:06.394Z,14960.00
2018-04-24T10:35:06.387Z,14588.00
2018-04-24T10:36:06.376Z,13820.00
2018-04-24T10:37:06.372Z,13636.00
2018-04-24T10:38:06.372Z,13676.00
2018-04-24T10:39:06.359Z,13476.00
2018-04-24T10:40:06.351Z,13060.00
2018-04-24T10:41:06.344Z,13220.00
2018-04-24T10:42:06.342Z,14300.00
2018-04-24T10:43:06.336Z,14968.00
2018-04-24T10:44:06.322Z,13520.00
2018-04-24T10:45:06.313Z,11580.00
2018-04-24T10:46:06.307Z,10644.00
2018-04-24T10:47:06.311Z,11180.00
2018-04-24T10:48:06.321Z,12692.00
2018-04-24T10:49:06.285Z,15064.00
2018-04-24T10:50:06.275Z,16616.00
2018-04-24T10:51:06.270Z,16876.00
2018-04-24T10:52:06.265Z,17632.00
2018-04-24T10:53:06.263Z,20000.00
2018-04-24T10:54:06.247Z,27104.00
2018-04-24T10:55:06.238Z,25120.00
2018-04-24T10:56:06.340Z,24992.00
2018-04-24T10:57:06.224Z,30144.00
2018-04-24T10:58:06.216Z,23712.00
2018-04-24T10:59:06.212Z,23296.00
2018-04-24T11:00:06.200Z,23424.00
2018-04-24T11:01:06.198Z,25472.00
2018-04-24T11:02:06.184Z,24416.00
2018-04-24T11:03:06.177Z,22048.00
2018-04-24T11:04:06.168Z,20896.00
2018-04-24T11:05:06.160Z,20480.00
2018-04-24T11:06:06.152Z,19168.00
2018-04-24T11:07:06.153Z,17920.00
2018-04-24T11:08:06.139Z,15160.00
2018-04-24T11:09:06.132Z,13080.00
2018-04-24T11:10:06.121Z,12412.00
2018-04-24T11:11:06.116Z,12156.00
2018-04-24T11:12:06.105Z,11852.00
2018-04-24T11:13:06.102Z,11512.00
2018-04-24T11:14:06.087Z,12040.00
2018-04-24T11:15:06.082Z,12936.00
2018-04-24T11:16:06.077Z,13036.00
2018-04-24T11:17:06.096Z,12880.00
2018-04-24T11:18:06.056Z,12648.00
2018-04-24T11:19:06.050Z,12432.00
2018-04-24T11:20:06.041Z,12096.00
2018-04-24T11:21:06.032Z,11464.00
2018-04-24T11:22:06.025Z,11000.00
2018-04-24T11:23:06.020Z,10564.00
2018-04-24T11:24:06.007Z,9644.00
2018-04-24T11:25:06.000Z,8688.00
2018-04-24T11:26:05.992Z,8408.00
2018-04-24T11:27:05.988Z,8144.00
2018-04-24T11:28:05.975Z,7732.00
2018-04-24T11:29:05.969Z,7732.00
2018-04-24T11:30:05.965Z,7940.00
2018-04-24T11:31:05.951Z,7672.00
2018-04-24T11:32:05.943Z,7832.00
2018-04-24T11:33:05.937Z,8060.00
2018-04-24T11:34:05.999Z,7412.00
2018-04-24T11:35:05.921Z,6944.00
2018-04-24T11:36:05.909Z,7460.00
2018-04-24T11:37:05.896Z,7512.00
2018-04-24T11:38:05.890Z,7692.00
2018-04-24T11:39:05.880Z,8052.00
2018-04-24T11:40:05.871Z,8188.00
2018-04-24T11:41:05.862Z,8072.00
2018-04-24T11:42:05.853Z,8640.00
2018-04-24T11:43:05.845Z,10124.00
2018-04-24T11:44:05.843Z,11840.00
2018-04-24T11:45:05.902Z,12440.00
2018-04-24T11:46:05.815Z,12752.00
2018-04-24T11:47:05.807Z,12720.00
2018-04-24T11:48:05.796Z,12024.00
2018-04-24T11:49:05.786Z,12156.00
2018-04-24T11:50:05.780Z,12504.00
2018-04-24T11:51:05.778Z,12700.00
2018-04-24T11:52:05.757Z,13000.00
2018-04-24T11:53:05.748Z,13256.00
2018-04-24T11:54:05.744Z,12744.00
2018-04-24T11:55:05.729Z,13536.00
2018-04-24T11:56:05.720Z,14444.00
2018-04-24T11:57:05.733Z,14504.00
2018-04-24T11:58:05.700Z,16404.00
2018-04-24T11:59:05.696Z,17952.00
2018-04-24T12:00:05.705Z,18080.00
2018-04-24T12:01:05.676Z,17472.00
2018-04-24T12:02:05.662Z,18752.00
2018-04-24T12:03:05.653Z,18880.00
2018-04-24T12:04:05.688Z,18816.00
2018-04-24T12:05:05.635Z,16384.00
2018-04-24T12:06:05.630Z,17152.00
2018-04-24T12:07:05.615Z,17184.00
2018-04-24T12:08:05.607Z,16144.00
2018-04-24T12:09:05.597Z,14476.00
2018-04-24T12:10:05.696Z,14624.00
2018-04-24T12:11:05.580Z,16484.00
2018-04-24T12:12:05.573Z,18176.00
2018-04-24T12:13:05.565Z,18720.00
2018-04-24T12:14:05.554Z,16864.00
2018-04-24T12:15:05.547Z,14472.00
2018-04-24T12:16:05.547Z,12516.00
2018-04-24T12:17:05.533Z,11844.00
2018-04-24T12:18:05.520Z,12028.00